Aérodrome :
LOGIN :

S'inscrire | Disclaimer

   EN    FR    IT 

 










Légende :    VFR   VFR Marginal   IFR   IFR Intensif   IFR Très Intensif
Visi : 
Plafond : 
>= 8 km
>= 3000ft
5 à 8 km
1000 à 3000 ft
1500m à 5 km
500 à 1000 ft
800 à 1500m
200 à 500 ft
< 800m
< 200 ft
Symboles :   Orages  Brouillard  Fortes neiges  Fortes précipitations  Vent > 20 kt
SIGMETs :   Divers  Orages  Givrage  Turbulence  Onde Orograph.  Cendres Volcan.






- Altitude de l'aérodrome : 675 ft
- Code IATA : RZE


EPRZ - Rzeszow-Jasionka

DERNIER METAR :
  • 062030Z 24004KT 9999 -SHRA SCT026CB 17/16 Q1011

METARs EXPIRÉS :
  • 062000Z 17004KT 9999 -SHRA SCT022CB 17/16 Q1011
  • 061930Z VRB02KT 9999 -SHRA FEW030CB 18/14 Q1011
  • 061900Z 30008KT 9999 FEW046CB 18/15 Q1010
  • 061830Z 29008KT 9999 -SHRA BKN030CB 18/17 Q1009 RETSRA
  • 061800Z 32016KT 290V350 2000 TSRA BKN023CB 18/17 Q1009 RESHRA

TAF TAF EPRZ
Valide du 06 à 18h jusqu'au 07 à 18h UTC


061730Z 0618/0718 20008KT 9999 BKN045CB
BECMG 0618/0621 30012KT
TEMPO 0618/0619 VRB26G42KT 1500 TSRAGR BKN007 BKN030CB
TEMPO 0619/0621 VRB20G30KT 2000 TSRA BKN004 BKN025CB
TEMPO 0621/0623 SHRA
BECMG 0623/0701 CAVOK
BECMG 0706/0709 31016G27KT SCT030TCU
BECMG 0713/0715 CAVOK
BECMG 0715/0717 27007KT



MET'MAP, la Météo Aéronautique d'un coup d'oeil ! - Copyright ORBIFLY Décembre 2007 - Disclaimer

ORBIFLY MET'MAP TEAM :

Programmation & Développement : Alexandra Zaïnal
Sur une idée originale de : Baudouin d'Aumeries
Assistance à la programmation : Marc-Olivier Méhu
Soutien technique & logistique : Manuel Goepfert

Contact : metmap@orbifly.com




SOURCES & CREDITS :

   NOAA